sensor_id;sensor_type;location;lat;lon;timestamp;temperature;humidity
5786;DHT22;2919;48.630;9.000;2022-09-17T00:01:38;9.50;99.90
5786;DHT22;2919;48.630;9.000;2022-09-17T00:04:04;9.40;99.90
5786;DHT22;2919;48.630;9.000;2022-09-17T00:06:33;9.40;99.90
5786;DHT22;2919;48.630;9.000;2022-09-17T00:08:58;9.40;99.90
5786;DHT22;2919;48.630;9.000;2022-09-17T00:11:27;9.50;99.90
5786;DHT22;2919;48.630;9.000;2022-09-17T00:13:54;9.50;99.90
5786;DHT22;2919;48.630;9.000;2022-09-17T00:18:53;9.50;99.90
5786;DHT22;2919;48.630;9.000;2022-09-17T00:21:19;9.50;99.90
5786;DHT22;2919;48.630;9.000;2022-09-17T00:23:45;9.50;99.90
5786;DHT22;2919;48.630;9.000;2022-09-17T00:26:11;9.50;99.90
5786;DHT22;2919;48.630;9.000;2022-09-17T00:28:37;9.50;99.90
5786;DHT22;2919;48.630;9.000;2022-09-17T00:31:07;9.40;99.90
5786;DHT22;2919;48.630;9.000;2022-09-17T00:33:33;9.50;99.90
5786;DHT22;2919;48.630;9.000;2022-09-17T00:36:00;9.50;99.90
5786;DHT22;2919;48.630;9.000;2022-09-17T00:38:26;9.50;99.90
5786;DHT22;2919;48.630;9.000;2022-09-17T00:40:52;9.50;99.90
5786;DHT22;2919;48.630;9.000;2022-09-17T00:43:40;9.50;99.90
5786;DHT22;2919;48.630;9.000;2022-09-17T00:48:52;9.60;99.90
5786;DHT22;2919;48.630;9.000;2022-09-17T00:51:22;9.60;99.90
5786;DHT22;2919;48.630;9.000;2022-09-17T00:53:49;9.60;99.90
5786;DHT22;2919;48.630;9.000;2022-09-17T00:56:27;9.60;99.90
5786;DHT22;2919;48.630;9.000;2022-09-17T00:58:53;9.60;99.90
5786;DHT22;2919;48.630;9.000;2022-09-17T01:01:20;9.60;99.90
5786;DHT22;2919;48.630;9.000;2022-09-17T01:03:46;9.60;99.90
5786;DHT22;2919;48.630;9.000;2022-09-17T01:27:14;9.60;99.90
5786;DHT22;2919;48.630;9.000;2022-09-17T01:32:35;9.70;99.90
5786;DHT22;2919;48.630;9.000;2022-09-17T01:35:09;9.60;99.90
5786;DHT22;2919;48.630;9.000;2022-09-17T01:37:41;9.60;99.90
5786;DHT22;2919;48.630;9.000;2022-09-17T01:40:23;9.60;99.90
5786;DHT22;2919;48.630;9.000;2022-09-17T01:45:43;9.60;99.90
5786;DHT22;2919;48.630;9.000;2022-09-17T01:48:19;9.60;99.90
5786;DHT22;2919;48.630;9.000;2022-09-17T01:50:50;9.60;99.90
5786;DHT22;2919;48.630;9.000;2022-09-17T01:53:19;9.60;99.90
5786;DHT22;2919;48.630;9.000;2022-09-17T01:55:47;9.50;99.90
5786;DHT22;2919;48.630;9.000;2022-09-17T01:58:21;9.50;99.90
5786;DHT22;2919;48.630;9.000;2022-09-17T02:00:57;9.50;99.90
5786;DHT22;2919;48.630;9.000;2022-09-17T02:03:36;9.40;99.90
5786;DHT22;2919;48.630;9.000;2022-09-17T02:06:16;9.50;99.90
5786;DHT22;2919;48.630;9.000;2022-09-17T02:08:50;9.50;99.90
5786;DHT22;2919;48.630;9.000;2022-09-17T02:11:17;9.60;99.90
5786;DHT22;2919;48.630;9.000;2022-09-17T02:21:39;9.70;99.90
5786;DHT22;2919;48.630;9.000;2022-09-17T02:24:24;9.60;99.90
5786;DHT22;2919;48.630;9.000;2022-09-17T02:27:00;9.60;99.90
5786;DHT22;2919;48.630;9.000;2022-09-17T02:29:52;9.60;99.90
5786;DHT22;2919;48.630;9.000;2022-09-17T02:32:18;9.60;99.90
5786;DHT22;2919;48.630;9.000;2022-09-17T02:34:44;9.50;99.90
5786;DHT22;2919;48.630;9.000;2022-09-17T02:37:10;9.50;99.90
5786;DHT22;2919;48.630;9.000;2022-09-17T02:39:36;9.50;99.90
5786;DHT22;2919;48.630;9.000;2022-09-17T02:45:20;9.50;99.90
5786;DHT22;2919;48.630;9.000;2022-09-17T02:56:17;9.50;99.90
5786;DHT22;2919;48.630;9.000;2022-09-17T03:01:59;9.50;99.90
5786;DHT22;2919;48.630;9.000;2022-09-17T03:04:28;9.50;99.90
5786;DHT22;2919;48.630;9.000;2022-09-17T03:06:55;9.50;99.90
5786;DHT22;2919;48.630;9.000;2022-09-17T03:09:21;9.40;99.90
5786;DHT22;2919;48.630;9.000;2022-09-17T03:11:46;9.40;99.90
5786;DHT22;2919;48.630;9.000;2022-09-17T03:14:12;9.30;99.90
5786;DHT22;2919;48.630;9.000;2022-09-17T03:16:38;9.30;99.90
5786;DHT22;2919;48.630;9.000;2022-09-17T03:19:03;9.40;99.90
5786;DHT22;2919;48.630;9.000;2022-09-17T03:21:29;9.20;99.90
5786;DHT22;2919;48.630;9.000;2022-09-17T03:23:55;9.20;99.90
5786;DHT22;2919;48.630;9.000;2022-09-17T03:26:21;9.20;99.90
5786;DHT22;2919;48.630;9.000;2022-09-17T03:28:47;9.10;99.90
5786;DHT22;2919;48.630;9.000;2022-09-17T03:31:12;9.00;99.90
5786;DHT22;2919;48.630;9.000;2022-09-17T03:33:38;9.00;99.90
5786;DHT22;2919;48.630;9.000;2022-09-17T03:36:04;8.90;99.90
5786;DHT22;2919;48.630;9.000;2022-09-17T03:38:29;8.90;99.90
5786;DHT22;2919;48.630;9.000;2022-09-17T03:41:03;9.00;99.90
5786;DHT22;2919;48.630;9.000;2022-09-17T03:43:29;9.00;99.90
5786;DHT22;2919;48.630;9.000;2022-09-17T03:45:55;9.10;99.90
5786;DHT22;2919;48.630;9.000;2022-09-17T03:48:21;9.10;99.90
5786;DHT22;2919;48.630;9.000;2022-09-17T03:50:47;9.10;99.90
5786;DHT22;2919;48.630;9.000;2022-09-17T03:53:12;9.20;99.90
5786;DHT22;2919;48.630;9.000;2022-09-17T03:55:39;9.30;99.90
5786;DHT22;2919;48.630;9.000;2022-09-17T03:58:05;9.10;99.90
5786;DHT22;2919;48.630;9.000;2022-09-17T04:00:31;9.10;99.90
5786;DHT22;2919;48.630;9.000;2022-09-17T04:02:57;9.10;99.90
5786;DHT22;2919;48.630;9.000;2022-09-17T04:05:22;9.10;99.90
5786;DHT22;2919;48.630;9.000;2022-09-17T04:07:48;9.10;99.90
5786;DHT22;2919;48.630;9.000;2022-09-17T04:10:14;9.10;99.90
5786;DHT22;2919;48.630;9.000;2022-09-17T04:12:39;9.10;99.90
5786;DHT22;2919;48.630;9.000;2022-09-17T04:15:05;9.10;99.90
5786;DHT22;2919;48.630;9.000;2022-09-17T04:17:31;9.10;99.90
5786;DHT22;2919;48.630;9.000;2022-09-17T04:19:57;9.10;99.90
5786;DHT22;2919;48.630;9.000;2022-09-17T04:22:23;9.10;99.90
5786;DHT22;2919;48.630;9.000;2022-09-17T04:24:49;9.20;99.90
5786;DHT22;2919;48.630;9.000;2022-09-17T04:27:15;9.10;99.90
5786;DHT22;2919;48.630;9.000;2022-09-17T04:29:41;9.00;99.90
5786;DHT22;2919;48.630;9.000;2022-09-17T04:32:07;9.00;99.90
5786;DHT22;2919;48.630;9.000;2022-09-17T04:34:33;9.00;99.90
5786;DHT22;2919;48.630;9.000;2022-09-17T04:36:59;8.90;99.90
5786;DHT22;2919;48.630;9.000;2022-09-17T04:39:24;8.80;99.90
5786;DHT22;2919;48.630;9.000;2022-09-17T04:41:50;8.70;99.90
5786;DHT22;2919;48.630;9.000;2022-09-17T04:44:16;8.70;99.90
5786;DHT22;2919;48.630;9.000;2022-09-17T04:46:42;8.70;99.90
5786;DHT22;2919;48.630;9.000;2022-09-17T04:49:07;8.60;99.90
5786;DHT22;2919;48.630;9.000;2022-09-17T04:51:33;8.60;99.90
5786;DHT22;2919;48.630;9.000;2022-09-17T04:53:59;8.60;99.90
5786;DHT22;2919;48.630;9.000;2022-09-17T04:56:24;8.70;99.90
5786;DHT22;2919;48.630;9.000;2022-09-17T04:58:50;8.50;99.90
5786;DHT22;2919;48.630;9.000;2022-09-17T05:01:15;8.50;99.90
5786;DHT22;2919;48.630;9.000;2022-09-17T05:03:43;8.50;99.90
5786;DHT22;2919;48.630;9.000;2022-09-17T05:06:09;8.40;99.90
5786;DHT22;2919;48.630;9.000;2022-09-17T05:08:35;8.40;99.90
5786;DHT22;2919;48.630;9.000;2022-09-17T05:11:01;8.30;99.90
5786;DHT22;2919;48.630;9.000;2022-09-17T05:13:27;8.30;99.90
5786;DHT22;2919;48.630;9.000;2022-09-17T05:15:56;8.40;99.90
5786;DHT22;2919;48.630;9.000;2022-09-17T05:18:22;8.40;99.90
5786;DHT22;2919;48.630;9.000;2022-09-17T05:20:47;8.40;99.90
5786;DHT22;2919;48.630;9.000;2022-09-17T05:23:13;8.40;99.90
5786;DHT22;2919;48.630;9.000;2022-09-17T05:25:39;8.30;99.90
5786;DHT22;2919;48.630;9.000;2022-09-17T05:28:04;8.40;99.90
5786;DHT22;2919;48.630;9.000;2022-09-17T05:30:30;8.30;99.90
5786;DHT22;2919;48.630;9.000;2022-09-17T05:33:01;8.40;99.90
5786;DHT22;2919;48.630;9.000;2022-09-17T05:35:27;8.50;99.90
5786;DHT22;2919;48.630;9.000;2022-09-17T05:38:00;8.50;99.90
5786;DHT22;2919;48.630;9.000;2022-09-17T05:40:27;8.40;99.90
5786;DHT22;2919;48.630;9.000;2022-09-17T05:43:00;8.70;99.90
5786;DHT22;2919;48.630;9.000;2022-09-17T05:45:26;8.60;99.90
5786;DHT22;2919;48.630;9.000;2022-09-17T05:47:59;8.60;99.90
5786;DHT22;2919;48.630;9.000;2022-09-17T05:50:26;8.70;99.90
5786;DHT22;2919;48.630;9.000;2022-09-17T05:52:52;8.80;99.90
5786;DHT22;2919;48.630;9.000;2022-09-17T05:55:19;9.00;99.90
5786;DHT22;2919;48.630;9.000;2022-09-17T05:57:49;9.00;99.90
5786;DHT22;2919;48.630;9.000;2022-09-17T06:00:16;9.10;99.90
5786;DHT22;2919;48.630;9.000;2022-09-17T06:02:42;9.10;99.90
5786;DHT22;2919;48.630;9.000;2022-09-17T06:05:08;9.10;99.90
5786;DHT22;2919;48.630;9.000;2022-09-17T06:07:35;9.10;99.90
5786;DHT22;2919;48.630;9.000;2022-09-17T06:10:01;9.00;99.90
5786;DHT22;2919;48.630;9.000;2022-09-17T06:12:27;9.00;99.90
5786;DHT22;2919;48.630;9.000;2022-09-17T06:14:52;9.10;99.90
5786;DHT22;2919;48.630;9.000;2022-09-17T06:17:18;9.00;99.90
5786;DHT22;2919;48.630;9.000;2022-09-17T06:19:43;9.00;99.90
5786;DHT22;2919;48.630;9.000;2022-09-17T06:22:09;9.00;99.90
5786;DHT22;2919;48.630;9.000;2022-09-17T06:24:34;9.20;99.90
5786;DHT22;2919;48.630;9.000;2022-09-17T06:27:00;9.30;99.90
5786;DHT22;2919;48.630;9.000;2022-09-17T06:29:26;9.40;99.90
5786;DHT22;2919;48.630;9.000;2022-09-17T06:31:52;9.50;99.90
5786;DHT22;2919;48.630;9.000;2022-09-17T06:34:18;9.70;99.90
5786;DHT22;2919;48.630;9.000;2022-09-17T06:36:44;9.70;99.90
5786;DHT22;2919;48.630;9.000;2022-09-17T06:39:09;9.70;99.90
5786;DHT22;2919;48.630;9.000;2022-09-17T06:41:37;9.80;99.90
5786;DHT22;2919;48.630;9.000;2022-09-17T06:44:03;9.70;99.90
5786;DHT22;2919;48.630;9.000;2022-09-17T06:46:29;9.70;99.90
5786;DHT22;2919;48.630;9.000;2022-09-17T06:48:55;9.50;99.90
5786;DHT22;2919;48.630;9.000;2022-09-17T06:51:20;9.40;99.90
5786;DHT22;2919;48.630;9.000;2022-09-17T06:53:47;9.40;99.90
5786;DHT22;2919;48.630;9.000;2022-09-17T06:56:13;9.20;99.90
5786;DHT22;2919;48.630;9.000;2022-09-17T06:58:39;9.40;99.90
5786;DHT22;2919;48.630;9.000;2022-09-17T07:01:06;9.40;99.90
5786;DHT22;2919;48.630;9.000;2022-09-17T07:03:33;9.40;99.90
5786;DHT22;2919;48.630;9.000;2022-09-17T07:05:59;9.40;99.90
5786;DHT22;2919;48.630;9.000;2022-09-17T07:08:25;9.50;99.90
5786;DHT22;2919;48.630;9.000;2022-09-17T07:10:53;9.50;99.90
5786;DHT22;2919;48.630;9.000;2022-09-17T07:13:19;9.60;99.90
5786;DHT22;2919;48.630;9.000;2022-09-17T07:15:55;9.60;99.90
5786;DHT22;2919;48.630;9.000;2022-09-17T07:18:21;9.50;99.90
5786;DHT22;2919;48.630;9.000;2022-09-17T07:20:59;9.40;99.90
5786;DHT22;2919;48.630;9.000;2022-09-17T07:23:30;9.40;99.90
5786;DHT22;2919;48.630;9.000;2022-09-17T07:25:58;9.50;99.90
5786;DHT22;2919;48.630;9.000;2022-09-17T07:28:25;9.40;99.90
5786;DHT22;2919;48.630;9.000;2022-09-17T07:30:51;9.50;99.90
5786;DHT22;2919;48.630;9.000;2022-09-17T07:33:19;9.50;99.90
5786;DHT22;2919;48.630;9.000;2022-09-17T07:35:58;9.50;99.90
5786;DHT22;2919;48.630;9.000;2022-09-17T07:38:26;9.50;99.90
5786;DHT22;2919;48.630;9.000;2022-09-17T07:40:57;9.50;99.90
5786;DHT22;2919;48.630;9.000;2022-09-17T07:43:27;9.60;99.90
5786;DHT22;2919;48.630;9.000;2022-09-17T07:45:53;9.60;99.90
5786;DHT22;2919;48.630;9.000;2022-09-17T07:48:20;9.60;99.90
5786;DHT22;2919;48.630;9.000;2022-09-17T07:50:46;9.60;99.90
5786;DHT22;2919;48.630;9.000;2022-09-17T07:53:12;9.60;99.90
5786;DHT22;2919;48.630;9.000;2022-09-17T07:55:38;9.50;99.90
5786;DHT22;2919;48.630;9.000;2022-09-17T07:58:03;9.50;99.90
5786;DHT22;2919;48.630;9.000;2022-09-17T08:00:29;9.40;99.90
5786;DHT22;2919;48.630;9.000;2022-09-17T08:02:55;9.30;99.90
5786;DHT22;2919;48.630;9.000;2022-09-17T08:05:22;9.20;99.90
5786;DHT22;2919;48.630;9.000;2022-09-17T08:07:53;9.10;99.90
5786;DHT22;2919;48.630;9.000;2022-09-17T08:10:20;9.00;99.90
5786;DHT22;2919;48.630;9.000;2022-09-17T08:12:48;9.00;99.90
5786;DHT22;2919;48.630;9.000;2022-09-17T08:15:15;9.20;99.90
5786;DHT22;2919;48.630;9.000;2022-09-17T08:17:45;9.30;99.90
5786;DHT22;2919;48.630;9.000;2022-09-17T08:20:14;9.30;99.90
5786;DHT22;2919;48.630;9.000;2022-09-17T08:22:41;9.30;99.90
5786;DHT22;2919;48.630;9.000;2022-09-17T08:25:07;9.30;99.90
5786;DHT22;2919;48.630;9.000;2022-09-17T08:27:33;9.40;99.90
5786;DHT22;2919;48.630;9.000;2022-09-17T08:29:59;9.50;99.90
5786;DHT22;2919;48.630;9.000;2022-09-17T08:32:25;9.60;99.90
5786;DHT22;2919;48.630;9.000;2022-09-17T08:34:51;9.70;99.90
5786;DHT22;2919;48.630;9.000;2022-09-17T08:37:18;9.60;99.90
5786;DHT22;2919;48.630;9.000;2022-09-17T08:39:44;9.70;99.90
5786;DHT22;2919;48.630;9.000;2022-09-17T08:45:04;10.10;99.90
5786;DHT22;2919;48.630;9.000;2022-09-17T08:47:41;10.30;99.90
5786;DHT22;2919;48.630;9.000;2022-09-17T08:50:32;10.30;99.90
5786;DHT22;2919;48.630;9.000;2022-09-17T08:53:11;10.30;99.90
5786;DHT22;2919;48.630;9.000;2022-09-17T08:55:57;10.20;99.90
5786;DHT22;2919;48.630;9.000;2022-09-17T08:58:32;10.20;99.90
5786;DHT22;2919;48.630;9.000;2022-09-17T09:01:19;10.40;99.90
5786;DHT22;2919;48.630;9.000;2022-09-17T09:07:05;10.90;99.90
5786;DHT22;2919;48.630;9.000;2022-09-17T09:09:36;11.00;99.90
5786;DHT22;2919;48.630;9.000;2022-09-17T09:12:10;10.90;99.90
5786;DHT22;2919;48.630;9.000;2022-09-17T09:14:47;11.10;99.90
5786;DHT22;2919;48.630;9.000;2022-09-17T09:17:17;11.10;99.90
5786;DHT22;2919;48.630;9.000;2022-09-17T09:19:44;11.10;99.90
5786;DHT22;2919;48.630;9.000;2022-09-17T09:22:21;10.90;99.90
5786;DHT22;2919;48.630;9.000;2022-09-17T09:25:14;10.80;99.90
5786;DHT22;2919;48.630;9.000;2022-09-17T09:27:59;10.80;99.90
5786;DHT22;2919;48.630;9.000;2022-09-17T09:30:42;11.00;99.90
5786;DHT22;2919;48.630;9.000;2022-09-17T09:33:14;11.00;99.90
5786;DHT22;2919;48.630;9.000;2022-09-17T09:35:43;11.00;99.90
5786;DHT22;2919;48.630;9.000;2022-09-17T09:38:34;11.00;99.90
5786;DHT22;2919;48.630;9.000;2022-09-17T09:57:16;11.30;99.90
5786;DHT22;2919;48.630;9.000;2022-09-17T09:59:42;11.50;99.90
5786;DHT22;2919;48.630;9.000;2022-09-17T10:02:08;11.60;99.90
5786;DHT22;2919;48.630;9.000;2022-09-17T10:04:34;11.60;99.90
5786;DHT22;2919;48.630;9.000;2022-09-17T10:07:02;11.40;99.90
5786;DHT22;2919;48.630;9.000;2022-09-17T10:09:31;11.40;99.90
5786;DHT22;2919;48.630;9.000;2022-09-17T10:14:31;11.40;99.90
5786;DHT22;2919;48.630;9.000;2022-09-17T10:19:38;11.50;99.90
5786;DHT22;2919;48.630;9.000;2022-09-17T10:22:30;11.70;99.90
5786;DHT22;2919;48.630;9.000;2022-09-17T10:24:58;11.90;99.90
5786;DHT22;2919;48.630;9.000;2022-09-17T10:27:26;12.10;99.90
5786;DHT22;2919;48.630;9.000;2022-09-17T10:32:33;12.10;99.90
5786;DHT22;2919;48.630;9.000;2022-09-17T10:35:05;11.90;99.90
5786;DHT22;2919;48.630;9.000;2022-09-17T10:37:50;11.70;99.90
5786;DHT22;2919;48.630;9.000;2022-09-17T10:43:22;11.70;99.90
5786;DHT22;2919;48.630;9.000;2022-09-17T10:45:56;12.00;99.90
5786;DHT22;2919;48.630;9.000;2022-09-17T10:48:23;12.30;99.90
5786;DHT22;2919;48.630;9.000;2022-09-17T10:50:54;12.60;99.90
5786;DHT22;2919;48.630;9.000;2022-09-17T10:53:21;12.70;99.90
5786;DHT22;2919;48.630;9.000;2022-09-17T10:56:12;12.60;99.40
5786;DHT22;2919;48.630;9.000;2022-09-17T11:04:28;13.40;98.10
5786;DHT22;2919;48.630;9.000;2022-09-17T11:09:58;13.60;98.80
5786;DHT22;2919;48.630;9.000;2022-09-17T11:35:03;12.70;99.20
5786;DHT22;2919;48.630;9.000;2022-09-17T11:40:14;12.90;98.20
5786;DHT22;2919;48.630;9.000;2022-09-17T11:42:46;13.00;97.40
5786;DHT22;2919;48.630;9.000;2022-09-17T11:45:21;13.20;98.00
5786;DHT22;2919;48.630;9.000;2022-09-17T11:47:56;13.40;96.00
5786;DHT22;2919;48.630;9.000;2022-09-17T11:50:28;13.40;94.80
5786;DHT22;2919;48.630;9.000;2022-09-17T11:59:34;13.50;94.20
5786;DHT22;2919;48.630;9.000;2022-09-17T12:07:52;14.30;93.90
5786;DHT22;2919;48.630;9.000;2022-09-17T12:16:11;14.50;93.50
5786;DHT22;2919;48.630;9.000;2022-09-17T12:21:15;14.20;93.10
5786;DHT22;2919;48.630;9.000;2022-09-17T12:24:20;14.10;92.80
5786;DHT22;2919;48.630;9.000;2022-09-17T12:27:00;14.10;92.40
5786;DHT22;2919;48.630;9.000;2022-09-17T12:36:17;13.80;94.00
5786;DHT22;2919;48.630;9.000;2022-09-17T12:55:49;14.00;93.90
5786;DHT22;2919;48.630;9.000;2022-09-17T13:01:02;13.90;93.00
5786;DHT22;2919;48.630;9.000;2022-09-17T13:03:41;13.50;93.00
5786;DHT22;2919;48.630;9.000;2022-09-17T13:20:04;11.10;99.90
5786;DHT22;2919;48.630;9.000;2022-09-17T13:22:46;10.90;99.90
5786;DHT22;2919;48.630;9.000;2022-09-17T13:25:15;10.70;99.90
5786;DHT22;2919;48.630;9.000;2022-09-17T13:27:42;10.60;99.90
5786;DHT22;2919;48.630;9.000;2022-09-17T13:30:13;10.50;99.90
5786;DHT22;2919;48.630;9.000;2022-09-17T13:37:32;10.60;99.90
5786;DHT22;2919;48.630;9.000;2022-09-17T13:39:59;10.70;99.90
5786;DHT22;2919;48.630;9.000;2022-09-17T13:42:28;10.90;99.90
5786;DHT22;2919;48.630;9.000;2022-09-17T13:45:08;10.90;99.90
5786;DHT22;2919;48.630;9.000;2022-09-17T13:48:02;10.90;99.90
5786;DHT22;2919;48.630;9.000;2022-09-17T13:50:40;11.00;99.90
5786;DHT22;2919;48.630;9.000;2022-09-17T13:55:41;11.50;99.90
5786;DHT22;2919;48.630;9.000;2022-09-17T13:58:10;11.50;99.90
5786;DHT22;2919;48.630;9.000;2022-09-17T14:05:56;11.80;99.90
5786;DHT22;2919;48.630;9.000;2022-09-17T14:22:14;12.40;99.90
5786;DHT22;2919;48.630;9.000;2022-09-17T14:24:47;12.50;99.90
5786;DHT22;2919;48.630;9.000;2022-09-17T14:30:22;12.70;99.90
5786;DHT22;2919;48.630;9.000;2022-09-17T14:40:34;12.60;99.90
5786;DHT22;2919;48.630;9.000;2022-09-17T14:43:01;12.40;99.90
5786;DHT22;2919;48.630;9.000;2022-09-17T14:45:35;12.50;99.90
5786;DHT22;2919;48.630;9.000;2022-09-17T14:50:43;12.30;99.90
5786;DHT22;2919;48.630;9.000;2022-09-17T14:53:17;12.30;99.90
5786;DHT22;2919;48.630;9.000;2022-09-17T14:55:48;12.40;99.90
5786;DHT22;2919;48.630;9.000;2022-09-17T14:58:32;12.60;99.90
5786;DHT22;2919;48.630;9.000;2022-09-17T15:00:59;12.50;99.90
5786;DHT22;2919;48.630;9.000;2022-09-17T15:03:25;12.70;99.90
5786;DHT22;2919;48.630;9.000;2022-09-17T15:05:51;12.90;99.90
5786;DHT22;2919;48.630;9.000;2022-09-17T15:08:20;12.80;99.60
5786;DHT22;2919;48.630;9.000;2022-09-17T15:10:54;12.70;99.50
5786;DHT22;2919;48.630;9.000;2022-09-17T15:13:25;12.70;99.90
5786;DHT22;2919;48.630;9.000;2022-09-17T15:18:19;12.80;99.70
5786;DHT22;2919;48.630;9.000;2022-09-17T15:20:46;12.70;99.90
5786;DHT22;2919;48.630;9.000;2022-09-17T15:25:42;12.70;99.90
5786;DHT22;2919;48.630;9.000;2022-09-17T15:28:38;12.80;99.90
5786;DHT22;2919;48.630;9.000;2022-09-17T15:31:14;12.70;99.90
5786;DHT22;2919;48.630;9.000;2022-09-17T15:33:41;12.80;99.50
5786;DHT22;2919;48.630;9.000;2022-09-17T15:38:35;12.50;99.90
5786;DHT22;2919;48.630;9.000;2022-09-17T15:41:34;12.50;99.90
5786;DHT22;2919;48.630;9.000;2022-09-17T15:46:38;12.30;99.90
5786;DHT22;2919;48.630;9.000;2022-09-17T15:51:52;12.40;99.90
5786;DHT22;2919;48.630;9.000;2022-09-17T15:54:31;12.50;99.90
5786;DHT22;2919;48.630;9.000;2022-09-17T15:56:59;12.50;99.70
5786;DHT22;2919;48.630;9.000;2022-09-17T15:59:30;12.40;99.50
5786;DHT22;2919;48.630;9.000;2022-09-17T16:01:59;12.20;99.90
5786;DHT22;2919;48.630;9.000;2022-09-17T16:07:23;12.20;99.90
5786;DHT22;2919;48.630;9.000;2022-09-17T16:09:52;12.20;99.90
5786;DHT22;2919;48.630;9.000;2022-09-17T16:12:24;12.30;99.90
5786;DHT22;2919;48.630;9.000;2022-09-17T16:14:57;12.30;99.90
5786;DHT22;2919;48.630;9.000;2022-09-17T16:20:20;12.30;99.90
5786;DHT22;2919;48.630;9.000;2022-09-17T16:22:48;12.50;99.90
5786;DHT22;2919;48.630;9.000;2022-09-17T16:25:19;12.60;99.70
5786;DHT22;2919;48.630;9.000;2022-09-17T16:30:20;12.70;99.90
5786;DHT22;2919;48.630;9.000;2022-09-17T16:32:46;12.70;99.20
5786;DHT22;2919;48.630;9.000;2022-09-17T16:35:18;12.60;99.50
5786;DHT22;2919;48.630;9.000;2022-09-17T16:37:48;12.60;99.70
5786;DHT22;2919;48.630;9.000;2022-09-17T16:40:15;12.50;99.90
5786;DHT22;2919;48.630;9.000;2022-09-17T16:42:41;12.40;99.90
5786;DHT22;2919;48.630;9.000;2022-09-17T16:45:07;12.40;99.90
5786;DHT22;2919;48.630;9.000;2022-09-17T16:47:37;12.30;99.90
5786;DHT22;2919;48.630;9.000;2022-09-17T16:50:14;12.20;99.90
5786;DHT22;2919;48.630;9.000;2022-09-17T16:52:40;12.10;99.90
5786;DHT22;2919;48.630;9.000;2022-09-17T16:55:06;12.10;99.90
5786;DHT22;2919;48.630;9.000;2022-09-17T16:57:33;12.00;99.90
5786;DHT22;2919;48.630;9.000;2022-09-17T16:59:59;11.90;99.90
5786;DHT22;2919;48.630;9.000;2022-09-17T17:02:25;11.80;99.90
5786;DHT22;2919;48.630;9.000;2022-09-17T17:04:50;11.70;99.90
5786;DHT22;2919;48.630;9.000;2022-09-17T17:07:16;11.70;99.90
5786;DHT22;2919;48.630;9.000;2022-09-17T17:09:41;11.70;99.90
5786;DHT22;2919;48.630;9.000;2022-09-17T17:12:07;11.60;99.90
5786;DHT22;2919;48.630;9.000;2022-09-17T17:14:32;11.60;99.90
5786;DHT22;2919;48.630;9.000;2022-09-17T17:16:58;11.60;99.90
5786;DHT22;2919;48.630;9.000;2022-09-17T17:19:24;11.60;99.90
5786;DHT22;2919;48.630;9.000;2022-09-17T17:21:51;11.50;99.90
5786;DHT22;2919;48.630;9.000;2022-09-17T17:24:17;11.50;99.90
5786;DHT22;2919;48.630;9.000;2022-09-17T17:26:43;11.50;99.90
5786;DHT22;2919;48.630;9.000;2022-09-17T17:29:09;11.50;99.90
5786;DHT22;2919;48.630;9.000;2022-09-17T17:31:35;11.20;99.90
5786;DHT22;2919;48.630;9.000;2022-09-17T17:34:01;11.20;99.90
5786;DHT22;2919;48.630;9.000;2022-09-17T17:36:27;11.10;99.90
5786;DHT22;2919;48.630;9.000;2022-09-17T17:38:56;11.00;99.90
5786;DHT22;2919;48.630;9.000;2022-09-17T17:41:22;11.00;99.90
5786;DHT22;2919;48.630;9.000;2022-09-17T17:43:51;10.90;99.90
5786;DHT22;2919;48.630;9.000;2022-09-17T17:46:17;10.80;99.90
5786;DHT22;2919;48.630;9.000;2022-09-17T17:48:43;10.80;99.90
5786;DHT22;2919;48.630;9.000;2022-09-17T17:51:09;10.70;99.90
5786;DHT22;2919;48.630;9.000;2022-09-17T17:53:35;10.60;99.90
5786;DHT22;2919;48.630;9.000;2022-09-17T17:56:04;10.60;99.90
5786;DHT22;2919;48.630;9.000;2022-09-17T17:58:31;10.50;99.90
5786;DHT22;2919;48.630;9.000;2022-09-17T18:00:57;10.30;99.90
5786;DHT22;2919;48.630;9.000;2022-09-17T18:03:23;10.20;99.90
5786;DHT22;2919;48.630;9.000;2022-09-17T18:05:53;10.10;99.90
5786;DHT22;2919;48.630;9.000;2022-09-17T18:08:23;10.20;99.90
5786;DHT22;2919;48.630;9.000;2022-09-17T18:10:55;10.00;99.90
5786;DHT22;2919;48.630;9.000;2022-09-17T18:13:22;10.00;99.90
5786;DHT22;2919;48.630;9.000;2022-09-17T18:15:52;10.00;99.90
5786;DHT22;2919;48.630;9.000;2022-09-17T18:18:19;9.80;99.90
5786;DHT22;2919;48.630;9.000;2022-09-17T18:20:44;9.80;99.90
5786;DHT22;2919;48.630;9.000;2022-09-17T18:23:10;9.70;99.90
5786;DHT22;2919;48.630;9.000;2022-09-17T18:25:36;9.70;99.90
5786;DHT22;2919;48.630;9.000;2022-09-17T18:28:01;9.70;99.90
5786;DHT22;2919;48.630;9.000;2022-09-17T18:30:28;9.70;99.90
5786;DHT22;2919;48.630;9.000;2022-09-17T18:32:53;9.70;99.90
5786;DHT22;2919;48.630;9.000;2022-09-17T18:35:19;9.70;99.90
5786;DHT22;2919;48.630;9.000;2022-09-17T18:37:45;9.70;99.90
5786;DHT22;2919;48.630;9.000;2022-09-17T18:40:11;9.70;99.90
5786;DHT22;2919;48.630;9.000;2022-09-17T18:42:36;9.70;99.90
5786;DHT22;2919;48.630;9.000;2022-09-17T18:45:02;9.80;99.90
5786;DHT22;2919;48.630;9.000;2022-09-17T18:47:27;9.70;99.90
5786;DHT22;2919;48.630;9.000;2022-09-17T18:49:53;9.70;99.90
5786;DHT22;2919;48.630;9.000;2022-09-17T18:52:19;9.70;99.90
5786;DHT22;2919;48.630;9.000;2022-09-17T18:54:44;9.70;99.90
5786;DHT22;2919;48.630;9.000;2022-09-17T18:57:11;9.70;99.90
5786;DHT22;2919;48.630;9.000;2022-09-17T18:59:37;9.60;99.90
5786;DHT22;2919;48.630;9.000;2022-09-17T19:02:03;9.70;99.90
5786;DHT22;2919;48.630;9.000;2022-09-17T19:04:28;9.60;99.90
5786;DHT22;2919;48.630;9.000;2022-09-17T19:06:54;9.60;99.90
5786;DHT22;2919;48.630;9.000;2022-09-17T19:09:20;9.60;99.90
5786;DHT22;2919;48.630;9.000;2022-09-17T19:11:45;9.60;99.90
5786;DHT22;2919;48.630;9.000;2022-09-17T19:14:11;9.60;99.90
5786;DHT22;2919;48.630;9.000;2022-09-17T19:16:37;9.60;99.90
5786;DHT22;2919;48.630;9.000;2022-09-17T19:19:02;9.70;99.90
5786;DHT22;2919;48.630;9.000;2022-09-17T19:21:28;9.60;99.90
5786;DHT22;2919;48.630;9.000;2022-09-17T19:23:53;9.60;99.90
5786;DHT22;2919;48.630;9.000;2022-09-17T19:26:24;9.60;99.90
5786;DHT22;2919;48.630;9.000;2022-09-17T19:28:55;9.60;99.90
5786;DHT22;2919;48.630;9.000;2022-09-17T19:31:22;9.50;99.90
5786;DHT22;2919;48.630;9.000;2022-09-17T19:33:49;9.50;99.90
5786;DHT22;2919;48.630;9.000;2022-09-17T19:36:16;9.40;99.90
5786;DHT22;2919;48.630;9.000;2022-09-17T19:38:43;9.40;99.90
5786;DHT22;2919;48.630;9.000;2022-09-17T19:41:11;9.20;99.90
5786;DHT22;2919;48.630;9.000;2022-09-17T19:43:38;9.20;99.90
5786;DHT22;2919;48.630;9.000;2022-09-17T19:46:07;9.00;99.90
5786;DHT22;2919;48.630;9.000;2022-09-17T19:48:34;8.90;99.90
5786;DHT22;2919;48.630;9.000;2022-09-17T19:51:01;8.70;99.90
5786;DHT22;2919;48.630;9.000;2022-09-17T19:53:27;8.60;99.90
5786;DHT22;2919;48.630;9.000;2022-09-17T19:55:53;8.50;99.90
5786;DHT22;2919;48.630;9.000;2022-09-17T19:58:19;8.40;99.90
5786;DHT22;2919;48.630;9.000;2022-09-17T20:00:44;8.40;99.90
5786;DHT22;2919;48.630;9.000;2022-09-17T20:03:10;8.30;99.90
5786;DHT22;2919;48.630;9.000;2022-09-17T20:05:38;8.20;99.90
5786;DHT22;2919;48.630;9.000;2022-09-17T20:08:04;8.10;99.90
5786;DHT22;2919;48.630;9.000;2022-09-17T20:10:29;8.10;99.90
5786;DHT22;2919;48.630;9.000;2022-09-17T20:12:56;8.10;99.90
5786;DHT22;2919;48.630;9.000;2022-09-17T20:15:22;8.10;99.90
5786;DHT22;2919;48.630;9.000;2022-09-17T20:17:47;8.10;99.90
5786;DHT22;2919;48.630;9.000;2022-09-17T20:20:13;8.10;99.90
5786;DHT22;2919;48.630;9.000;2022-09-17T20:22:39;8.00;99.90
5786;DHT22;2919;48.630;9.000;2022-09-17T20:25:05;8.00;99.90
5786;DHT22;2919;48.630;9.000;2022-09-17T20:27:30;8.00;99.90